Time;durP1;ratioP1;P1;durP2;ratioP2;P2;SDS_P1;SDS_P2;PMS_P1;PMS_P2;Temp;Humidity;BMP_temperature;BMP_pressure;BME280_temperature;BME280_humidity;BME280_pressure;Samples;Min_cycle;Max_cycle;Signal;HPM_P1;HPM_P2
2021/07/12 00:02:07;;;;;;;;;;;13.10;99.90;;;;;;5013042;28;19989;-87
2021/07/12 00:04:32;;;;;;;;;;;13.10;99.90;;;;;;4995513;28;20319;-87
2021/07/12 00:06:58;;;;;;;;;;;13.00;99.90;;;;;;4995191;28;19917;-87
2021/07/12 00:09:23;;;;;;;;;;;13.00;99.90;;;;;;5012883;28;19913;-87
2021/07/12 00:11:49;;;;;;;;;;;12.90;99.90;;;;;;4995264;28;19967;-86
2021/07/12 00:14:15;;;;;;;;;;;12.80;99.90;;;;;;4995186;28;19914;-86
2021/07/12 00:16:40;;;;;;;;;;;12.80;99.90;;;;;;4995046;28;19910;-87
2021/07/12 00:19:06;;;;;;;;;;;12.80;99.90;;;;;;5012818;28;19910;-87
2021/07/12 00:21:31;;;;;;;;;;;12.80;99.90;;;;;;4995110;28;20023;-87
2021/07/12 00:23:57;;;;;;;;;;;12.80;99.90;;;;;;4995276;28;19917;-87
2021/07/12 00:26:22;;;;;;;;;;;12.80;99.90;;;;;;4995118;28;19913;-87
2021/07/12 00:28:48;;;;;;;;;;;12.70;99.90;;;;;;4995024;28;20326;-86
2021/07/12 00:31:13;;;;;;;;;;;12.70;99.90;;;;;;4995131;28;20012;-87
2021/07/12 00:33:40;;;;;;;;;;;12.70;99.90;;;;;;4995213;28;19932;-87
2021/07/12 00:36:05;;;;;;;;;;;12.70;99.90;;;;;;4994959;28;19923;-88
2021/07/12 00:38:31;;;;;;;;;;;12.60;99.90;;;;;;5012685;28;19913;-87
2021/07/12 00:40:56;;;;;;;;;;;12.60;99.90;;;;;;4995126;28;20265;-87
2021/07/12 00:43:22;;;;;;;;;;;12.60;99.90;;;;;;4995047;28;19916;-87
2021/07/12 00:45:47;;;;;;;;;;;12.60;99.90;;;;;;5012533;28;19913;-87
2021/07/12 00:48:13;;;;;;;;;;;12.60;99.90;;;;;;4994862;28;19910;-87
2021/07/12 00:50:41;;;;;;;;;;;12.60;99.90;;;;;;5012589;28;19913;-88
2021/07/12 00:53:07;;;;;;;;;;;12.50;99.90;;;;;;5012504;28;19917;-88
2021/07/12 00:55:33;;;;;;;;;;;12.50;99.90;;;;;;4995114;28;19909;-87
2021/07/12 00:57:59;;;;;;;;;;;12.50;99.90;;;;;;4994678;28;19916;-87
2021/07/12 01:00:26;;;;;;;;;;;12.30;99.90;;;;;;5012482;28;19910;-87
2021/07/12 01:02:52;;;;;;;;;;;12.40;99.90;;;;;;4994895;28;19909;-87
2021/07/12 01:05:18;;;;;;;;;;;12.40;99.90;;;;;;4995018;28;19914;-87
2021/07/12 01:07:44;;;;;;;;;;;12.30;99.90;;;;;;4994758;28;19917;-87
2021/07/12 01:10:11;;;;;;;;;;;12.30;99.90;;;;;;4997201;28;19909;-87
2021/07/12 01:12:50;;;;;;;;;;;12.30;99.90;;;;;;5015992;28;20396;-87
2021/07/12 01:15:17;;;;;;;;;;;12.20;99.90;;;;;;4996274;28;19910;-86
2021/07/12 01:18:01;;;;;;;;;;;12.20;99.90;;;;;;4978520;28;20332;-87
2021/07/12 01:20:46;;;;;;;;;;;12.10;99.90;;;;;;4996283;28;20347;-86
2021/07/12 01:23:11;;;;;;;;;;;12.20;99.90;;;;;;4996160;28;19910;-87
2021/07/12 01:26:07;;;;;;;;;;;12.20;99.90;;;;;;4995368;28;19914;-88
2021/07/12 01:28:51;;;;;;;;;;;12.20;99.90;;;;;;4978602;28;20008;-87
2021/07/12 01:31:19;;;;;;;;;;;12.20;99.90;;;;;;4978524;28;20279;-87
2021/07/12 01:34:08;;;;;;;;;;;12.10;99.90;;;;;;4995882;28;20006;-87
2021/07/12 01:36:38;;;;;;;;;;;12.10;99.90;;;;;;4958891;28;19917;-87
2021/07/12 01:39:08;;;;;;;;;;;12.10;99.90;;;;;;4978393;28;19910;-88
2021/07/12 01:41:37;;;;;;;;;;;12.00;99.90;;;;;;4978726;28;19916;-87
2021/07/12 01:44:02;;;;;;;;;;;12.00;99.90;;;;;;4997604;28;19914;-87
2021/07/12 01:46:31;;;;;;;;;;;12.00;99.90;;;;;;4997623;28;20406;-88
2021/07/12 01:48:59;;;;;;;;;;;11.90;99.90;;;;;;4997624;28;19960;-87
2021/07/12 01:51:30;;;;;;;;;;;11.90;99.90;;;;;;4997644;28;19913;-87
2021/07/12 01:53:55;;;;;;;;;;;11.90;99.90;;;;;;4998126;28;20023;-88
2021/07/12 01:56:33;;;;;;;;;;;11.90;99.90;;;;;;5014719;28;20351;-88
2021/07/12 01:59:08;;;;;;;;;;;11.90;99.90;;;;;;4997367;28;19910;-87
2021/07/12 02:01:34;;;;;;;;;;;11.90;99.90;;;;;;4997545;28;19909;-87
2021/07/12 02:04:01;;;;;;;;;;;12.00;99.90;;;;;;4997490;28;20364;-88
2021/07/12 02:06:27;;;;;;;;;;;11.90;99.90;;;;;;4997318;28;19914;-87
2021/07/12 02:08:52;;;;;;;;;;;11.80;99.90;;;;;;5014776;28;20387;-88
2021/07/12 02:11:18;;;;;;;;;;;11.80;99.90;;;;;;4997220;28;20284;-87
2021/07/12 02:13:48;;;;;;;;;;;11.80;99.90;;;;;;4997049;28;19921;-87
2021/07/12 02:16:14;;;;;;;;;;;11.80;99.90;;;;;;4996931;28;20463;-87
2021/07/12 02:18:40;;;;;;;;;;;11.80;99.90;;;;;;5014483;28;19909;-87
2021/07/12 02:21:07;;;;;;;;;;;11.80;99.90;;;;;;4996749;28;20382;-88
2021/07/12 02:23:33;;;;;;;;;;;11.80;99.90;;;;;;4996954;28;20384;-88
2021/07/12 02:25:59;;;;;;;;;;;11.80;99.90;;;;;;4996869;28;19937;-88
2021/07/12 02:28:25;;;;;;;;;;;11.80;99.90;;;;;;4996891;28;19913;-87
2021/07/12 02:30:52;;;;;;;;;;;11.80;99.90;;;;;;5014238;28;19909;-88
2021/07/12 02:33:18;;;;;;;;;;;11.80;99.90;;;;;;4996777;28;19953;-87
2021/07/12 02:35:44;;;;;;;;;;;11.70;99.90;;;;;;4996745;28;19910;-87
2021/07/12 02:38:10;;;;;;;;;;;11.60;99.90;;;;;;5014044;28;19909;-87
2021/07/12 02:40:35;;;;;;;;;;;11.60;99.90;;;;;;4996629;28;20283;-87
2021/07/12 02:43:02;;;;;;;;;;;11.60;99.90;;;;;;4996648;28;19910;-87
2021/07/12 02:45:29;;;;;;;;;;;11.60;99.90;;;;;;4996454;28;19913;-87
2021/07/12 02:47:54;;;;;;;;;;;11.70;99.90;;;;;;4996206;28;20105;-87
2021/07/12 02:50:20;;;;;;;;;;;11.70;99.90;;;;;;5014196;28;19996;-87
2021/07/12 02:52:55;;;;;;;;;;;11.70;99.90;;;;;;4996371;28;19921;-87
2021/07/12 02:55:21;;;;;;;;;;;11.70;99.90;;;;;;4996401;28;19909;-87
2021/07/12 02:57:46;;;;;;;;;;;11.70;99.90;;;;;;4996163;28;19988;-87
2021/07/12 03:00:12;;;;;;;;;;;11.60;99.90;;;;;;5013847;28;20003;-87
2021/07/12 03:02:38;;;;;;;;;;;11.50;99.90;;;;;;4996207;28;20304;-87
2021/07/12 03:05:05;;;;;;;;;;;11.60;99.90;;;;;;4995896;28;19917;-87
2021/07/12 03:07:33;;;;;;;;;;;11.60;99.90;;;;;;5013171;28;20284;-87
2021/07/12 03:10:05;;;;;;;;;;;11.60;99.90;;;;;;4995704;28;19910;-87
2021/07/12 03:12:50;;;;;;;;;;;11.60;99.90;;;;;;4995659;28;19913;-89
2021/07/12 03:15:17;;;;;;;;;;;11.50;99.90;;;;;;5006672;28;20277;-87
2021/07/12 03:18:03;;;;;;;;;;;11.50;99.90;;;;;;4995324;28;19913;-87
2021/07/12 03:20:29;;;;;;;;;;;11.50;99.90;;;;;;5013429;28;19909;-88
2021/07/12 03:22:56;;;;;;;;;;;11.50;99.90;;;;;;5013536;28;20454;-87
2021/07/12 03:25:24;;;;;;;;;;;11.50;99.90;;;;;;4995855;28;19913;-87
2021/07/12 03:27:51;;;;;;;;;;;11.50;99.90;;;;;;4995697;28;20000;-88
2021/07/12 03:30:16;;;;;;;;;;;11.50;99.90;;;;;;4995759;28;20311;-88
2021/07/12 03:32:43;;;;;;;;;;;11.50;99.90;;;;;;4994939;28;19924;-87
2021/07/12 03:35:09;;;;;;;;;;;11.40;99.90;;;;;;5013254;28;19917;-88
2021/07/12 03:37:35;;;;;;;;;;;11.30;99.90;;;;;;4995714;28;19917;-87
2021/07/12 03:40:01;;;;;;;;;;;11.30;99.90;;;;;;5013309;28;19910;-87
2021/07/12 03:42:26;;;;;;;;;;;11.40;99.90;;;;;;4995616;28;19909;-87
2021/07/12 03:44:53;;;;;;;;;;;11.40;99.90;;;;;;4995303;28;19913;-88
2021/07/12 03:47:25;;;;;;;;;;;11.40;99.90;;;;;;4995487;28;20034;-87
2021/07/12 03:49:50;;;;;;;;;;;11.50;99.90;;;;;;4995778;28;19957;-87
2021/07/12 03:52:17;;;;;;;;;;;11.40;99.90;;;;;;4995684;28;19909;-87
2021/07/12 03:54:42;;;;;;;;;;;11.30;99.90;;;;;;4995765;28;19916;-87
2021/07/12 03:57:07;;;;;;;;;;;11.30;99.90;;;;;;4995329;28;20008;-88
2021/07/12 03:59:33;;;;;;;;;;;11.30;99.90;;;;;;4995267;28;19913;-87
2021/07/12 04:01:58;;;;;;;;;;;11.30;99.90;;;;;;4995498;28;19960;-87
2021/07/12 04:04:24;;;;;;;;;;;11.30;99.90;;;;;;4995555;28;20003;-87
2021/07/12 04:06:49;;;;;;;;;;;11.40;99.90;;;;;;4995348;28;19909;-88
2021/07/12 04:09:15;;;;;;;;;;;11.40;99.90;;;;;;4995284;28;20326;-87
2021/07/12 04:11:41;;;;;;;;;;;11.40;99.90;;;;;;5012944;28;19917;-88
2021/07/12 04:14:07;;;;;;;;;;;11.50;99.90;;;;;;4995147;28;20029;-88
2021/07/12 04:16:33;;;;;;;;;;;11.50;99.90;;;;;;4995152;28;19910;-87
2021/07/12 04:18:58;;;;;;;;;;;11.50;99.90;;;;;;4995302;28;19932;-87
2021/07/12 04:21:24;;;;;;;;;;;11.60;99.90;;;;;;4995140;28;20384;-87
2021/07/12 04:23:49;;;;;;;;;;;11.60;99.90;;;;;;4995233;28;19916;-87
2021/07/12 04:26:15;;;;;;;;;;;11.70;99.90;;;;;;4995011;28;19918;-87
2021/07/12 04:28:40;;;;;;;;;;;11.70;99.90;;;;;;4995378;28;19917;-88
2021/07/12 04:31:06;;;;;;;;;;;11.80;99.90;;;;;;4995041;28;19921;-87
2021/07/12 04:33:31;;;;;;;;;;;11.90;99.90;;;;;;4995166;28;19913;-88
2021/07/12 04:35:57;;;;;;;;;;;11.90;99.90;;;;;;4995067;28;19910;-88
2021/07/12 04:38:22;;;;;;;;;;;12.00;99.90;;;;;;4994769;28;19909;-87
2021/07/12 04:40:48;;;;;;;;;;;12.10;99.90;;;;;;4995152;28;19960;-88
2021/07/12 04:43:13;;;;;;;;;;;12.10;99.90;;;;;;4995842;28;19917;-87
2021/07/12 04:45:39;;;;;;;;;;;12.20;99.90;;;;;;4998741;28;19921;-88
2021/07/12 04:48:04;;;;;;;;;;;12.20;99.90;;;;;;4998560;28;20426;-88
2021/07/12 04:50:30;;;;;;;;;;;12.20;99.90;;;;;;4998909;28;19909;-87
2021/07/12 04:52:55;;;;;;;;;;;12.30;99.90;;;;;;5016318;28;19914;-87
2021/07/12 04:55:21;;;;;;;;;;;12.30;99.90;;;;;;4998731;28;19916;-87
2021/07/12 04:57:47;;;;;;;;;;;12.30;99.90;;;;;;4998289;28;20261;-87
2021/07/12 05:00:13;;;;;;;;;;;12.40;99.90;;;;;;4998561;28;19916;-87
2021/07/12 05:02:41;;;;;;;;;;;12.50;99.90;;;;;;4998790;28;19910;-87
2021/07/12 05:05:10;;;;;;;;;;;12.60;99.90;;;;;;4998288;28;19920;-86
2021/07/12 05:07:36;;;;;;;;;;;12.80;99.90;;;;;;4998378;28;20303;-87
2021/07/12 05:10:02;;;;;;;;;;;12.90;99.90;;;;;;4998370;28;19910;-87
2021/07/12 05:12:27;;;;;;;;;;;13.00;99.90;;;;;;5015910;28;19909;-87
2021/07/12 05:14:53;;;;;;;;;;;13.10;99.90;;;;;;4998109;28;19917;-87
2021/07/12 05:17:18;;;;;;;;;;;13.20;99.90;;;;;;4998057;28;19932;-87
2021/07/12 05:19:44;;;;;;;;;;;13.30;99.90;;;;;;4998271;28;19916;-87
2021/07/12 05:22:09;;;;;;;;;;;13.40;99.90;;;;;;4998518;28;19921;-88
2021/07/12 05:24:35;;;;;;;;;;;13.40;99.90;;;;;;4998205;28;20376;-88
2021/07/12 05:27:01;;;;;;;;;;;13.50;99.90;;;;;;4997934;28;19936;-87
2021/07/12 05:29:26;;;;;;;;;;;13.70;99.90;;;;;;4998051;28;19910;-88
2021/07/12 05:31:51;;;;;;;;;;;13.80;99.90;;;;;;5015692;28;20368;-87
2021/07/12 05:34:17;;;;;;;;;;;14.00;99.90;;;;;;4998108;28;19910;-87
2021/07/12 05:36:43;;;;;;;;;;;14.30;99.90;;;;;;4997971;28;20446;-87
2021/07/12 05:39:09;;;;;;;;;;;14.50;99.90;;;;;;5015609;28;19909;-88
2021/07/12 05:41:35;;;;;;;;;;;14.90;99.90;;;;;;4997969;28;19914;-87
2021/07/12 05:44:29;;;;;;;;;;;15.20;99.90;;;;;;5015287;28;20025;-88
2021/07/12 05:46:55;;;;;;;;;;;15.60;99.90;;;;;;5015251;28;19953;-88
2021/07/12 05:49:27;;;;;;;;;;;16.00;99.90;;;;;;4997796;28;19914;-87
2021/07/12 05:51:55;;;;;;;;;;;16.40;99.90;;;;;;4997813;28;19909;-87
2021/07/12 05:54:21;;;;;;;;;;;16.70;99.90;;;;;;5015025;28;19909;-88
2021/07/12 05:56:46;;;;;;;;;;;17.00;99.90;;;;;;4997048;28;19916;-88
2021/07/12 05:59:12;;;;;;;;;;;17.40;99.90;;;;;;5014995;28;19963;-87
2021/07/12 06:01:37;;;;;;;;;;;17.60;99.90;;;;;;4997446;28;19956;-87
2021/07/12 06:04:03;;;;;;;;;;;17.80;99.90;;;;;;4997676;28;19913;-87
2021/07/12 06:06:28;;;;;;;;;;;18.00;99.90;;;;;;4997422;28;20376;-88
2021/07/12 06:08:56;;;;;;;;;;;18.30;99.90;;;;;;5015053;28;19976;-87
2021/07/12 06:11:31;;;;;;;;;;;18.70;99.90;;;;;;5014932;28;19924;-87
2021/07/12 06:13:59;;;;;;;;;;;18.90;99.90;;;;;;4997393;28;19914;-87
2021/07/12 06:16:25;;;;;;;;;;;19.30;99.90;;;;;;4996940;28;19921;-87
2021/07/12 06:18:52;;;;;;;;;;;19.60;99.90;;;;;;4997300;28;20288;-87
2021/07/12 06:21:18;;;;;;;;;;;19.80;99.90;;;;;;5010307;28;19909;-88
2021/07/12 06:23:44;;;;;;;;;;;20.00;99.90;;;;;;5016898;28;19970;-86
2021/07/12 06:26:09;;;;;;;;;;;20.00;99.90;;;;;;4998037;28;20368;-86
2021/07/12 06:28:35;;;;;;;;;;;20.10;99.90;;;;;;5014359;28;19956;-85
2021/07/12 06:31:01;;;;;;;;;;;20.10;99.90;;;;;;5014681;28;20415;-86
2021/07/12 06:33:28;;;;;;;;;;;20.30;99.90;;;;;;4997037;28;19925;-85
2021/07/12 06:35:54;;;;;;;;;;;20.30;99.90;;;;;;5014556;28;19916;-84
2021/07/12 06:38:22;;;;;;;;;;;20.50;99.90;;;;;;4995270;28;21560;-85
2021/07/12 06:40:49;;;;;;;;;;;20.80;99.90;;;;;;4996853;28;20024;-86
2021/07/12 06:43:15;;;;;;;;;;;21.00;99.90;;;;;;5014700;28;19914;-86
2021/07/12 06:45:43;;;;;;;;;;;21.20;99.90;;;;;;4996747;28;19920;-85
2021/07/12 06:48:09;;;;;;;;;;;21.20;99.90;;;;;;5014037;28;19913;-86
2021/07/12 06:50:34;;;;;;;;;;;21.30;99.90;;;;;;4996991;28;19909;-86
2021/07/12 06:53:01;;;;;;;;;;;21.50;99.90;;;;;;4996555;28;19915;-84
2021/07/12 06:55:27;;;;;;;;;;;21.80;99.90;;;;;;4996186;28;20325;-84
2021/07/12 06:57:52;;;;;;;;;;;21.80;99.90;;;;;;4996632;28;19913;-84
2021/07/12 07:00:18;;;;;;;;;;;21.90;99.90;;;;;;4995877;28;19952;-84
2021/07/12 07:02:43;;;;;;;;;;;21.90;99.90;;;;;;4996488;28;20375;-85
2021/07/12 07:05:09;;;;;;;;;;;21.90;99.90;;;;;;5013845;28;19914;-85
2021/07/12 07:07:35;;;;;;;;;;;22.00;99.90;;;;;;4996164;28;19909;-85
2021/07/12 07:10:03;;;;;;;;;;;22.10;99.90;;;;;;5013941;28;19909;-84
2021/07/12 07:12:28;;;;;;;;;;;22.20;99.90;;;;;;5013075;28;19972;-85
2021/07/12 07:14:54;;;;;;;;;;;22.40;99.90;;;;;;4998179;28;19909;-84
2021/07/12 07:17:19;;;;;;;;;;;22.50;99.90;;;;;;5013506;28;19918;-89
2021/07/12 07:19:45;;;;;;;;;;;22.50;99.90;;;;;;5013741;28;19913;-84
2021/07/12 07:22:10;;;;;;;;;;;22.50;99.90;;;;;;5012751;28;19913;-85
2021/07/12 07:24:36;;;;;;;;;;;22.30;99.90;;;;;;5012964;28;20000;-85
2021/07/12 07:27:01;;;;;;;;;;;22.30;99.90;;;;;;5013516;28;20027;-83
2021/07/12 07:29:27;;;;;;;;;;;22.40;99.90;;;;;;4997455;28;19960;-83
2021/07/12 07:31:52;;;;;;;;;;;22.70;99.90;;;;;;5014877;28;19925;-85
2021/07/12 07:34:18;;;;;;;;;;;23.00;99.90;;;;;;5013427;28;19909;-85
2021/07/12 07:36:43;;;;;;;;;;;23.40;99.90;;;;;;5014212;28;19910;-84
2021/07/12 07:39:09;;;;;;;;;;;23.60;99.90;;;;;;5012897;28;19916;-85
2021/07/12 07:41:36;;;;;;;;;;;23.60;99.90;;;;;;5013429;28;19910;-86
2021/07/12 07:44:03;;;;;;;;;;;23.60;99.90;;;;;;4995344;28;20384;-86
2021/07/12 07:46:28;;;;;;;;;;;23.90;99.90;;;;;;5011904;28;20009;-86
2021/07/12 07:48:57;;;;;;;;;;;24.00;99.90;;;;;;5013107;28;19945;-86
2021/07/12 07:51:22;;;;;;;;;;;24.30;99.90;;;;;;5013436;28;19916;-87
2021/07/12 07:53:48;;;;;;;;;;;24.70;99.90;;;;;;4995648;28;19909;-86
2021/07/12 07:56:13;;;;;;;;;;;25.10;99.90;;;;;;4994795;28;20276;-86
2021/07/12 07:58:39;;;;;;;;;;;25.60;99.90;;;;;;5013164;28;19910;-86
2021/07/12 08:01:04;;;;;;;;;;;25.90;99.90;;;;;;5012694;28;20288;-85
2021/07/12 08:03:30;;;;;;;;;;;26.20;99.90;;;;;;4995423;28;19910;-85
2021/07/12 08:05:55;;;;;;;;;;;26.20;99.90;;;;;;4995670;28;20307;-86
2021/07/12 08:08:21;;;;;;;;;;;26.60;99.90;;;;;;5012929;28;20008;-87
2021/07/12 08:10:46;;;;;;;;;;;26.50;99.90;;;;;;4995757;28;20415;-87
2021/07/12 08:13:13;;;;;;;;;;;26.50;99.90;;;;;;4995613;28;19909;-86
2021/07/12 08:15:39;;;;;;;;;;;26.60;99.90;;;;;;4995655;28;19996;-86
2021/07/12 08:18:05;;;;;;;;;;;26.40;99.90;;;;;;4995861;28;19910;-86
2021/07/12 08:20:31;;;;;;;;;;;26.50;99.90;;;;;;5017011;28;19909;-85
2021/07/12 08:22:57;;;;;;;;;;;26.60;99.90;;;;;;4999317;28;19941;-85
2021/07/12 08:25:23;;;;;;;;;;;26.70;99.90;;;;;;4999232;28;19960;-85
2021/07/12 08:27:48;;;;;;;;;;;26.90;99.90;;;;;;4999003;28;20000;-86
2021/07/12 08:30:15;;;;;;;;;;;26.70;99.90;;;;;;4999190;28;19916;-84
2021/07/12 08:32:41;;;;;;;;;;;26.80;99.90;;;;;;5016589;28;19949;-86
2021/07/12 08:35:07;;;;;;;;;;;26.50;99.90;;;;;;4999718;28;19909;-85
2021/07/12 08:37:33;;;;;;;;;;;26.70;99.90;;;;;;4998548;28;20368;-87
2021/07/12 08:39:59;;;;;;;;;;;26.40;99.90;;;;;;5016292;28;20008;-84
2021/07/12 08:42:32;;;;;;;;;;;26.40;99.90;;;;;;5016409;28;19965;-86
2021/07/12 08:44:58;;;;;;;;;;;26.40;99.90;;;;;;5016553;28;19914;-86
2021/07/12 08:47:24;;;;;;;;;;;26.30;99.90;;;;;;4998901;28;19932;-87
2021/07/12 08:49:49;;;;;;;;;;;26.10;99.90;;;;;;4999040;28;19956;-87
2021/07/12 08:52:15;;;;;;;;;;;26.10;99.90;;;;;;4998923;28;19971;-85
2021/07/12 08:54:41;;;;;;;;;;;26.00;99.90;;;;;;4998356;28;19965;-86
2021/07/12 08:57:07;;;;;;;;;;;26.30;99.90;;;;;;4998594;28;19909;-85
2021/07/12 08:59:32;;;;;;;;;;;26.50;99.90;;;;;;4997923;28;19909;-85
2021/07/12 09:02:10;;;;;;;;;;;26.90;99.90;;;;;;4998433;28;20380;-86
2021/07/12 09:04:37;;;;;;;;;;;27.20;99.90;;;;;;4998529;28;19971;-87
2021/07/12 09:07:03;;;;;;;;;;;27.50;99.90;;;;;;5016188;28;19913;-86
2021/07/12 09:09:28;;;;;;;;;;;27.90;99.90;;;;;;5015994;28;19909;-86
2021/07/12 09:11:54;;;;;;;;;;;28.30;99.90;;;;;;5015969;28;20000;-86
2021/07/12 09:14:20;;;;;;;;;;;28.50;98.20;;;;;;5015997;28;19910;-85
2021/07/12 09:16:51;;;;;;;;;;;28.30;98.40;;;;;;5015933;28;19920;-86
2021/07/12 09:19:17;;;;;;;;;;;28.00;99.90;;;;;;5015929;28;19936;-86
2021/07/12 09:21:48;;;;;;;;;;;28.10;99.90;;;;;;5015906;28;19910;-86
2021/07/12 09:24:18;;;;;;;;;;;28.50;99.50;;;;;;4998395;28;19909;-86
2021/07/12 09:26:45;;;;;;;;;;;28.90;99.00;;;;;;5015778;28;20352;-87
2021/07/12 09:29:18;;;;;;;;;;;29.10;96.50;;;;;;5015315;28;19909;-87
2021/07/12 09:31:44;;;;;;;;;;;28.80;97.10;;;;;;4996695;28;19921;-86
2021/07/12 09:34:09;;;;;;;;;;;29.10;99.90;;;;;;4997976;28;19913;-86
2021/07/12 09:36:35;;;;;;;;;;;29.10;96.10;;;;;;4997973;28;19913;-88
2021/07/12 09:39:20;;;;;;;;;;;29.20;98.00;;;;;;5014884;28;19916;-86
2021/07/12 09:41:47;;;;;;;;;;;29.40;98.20;;;;;;5015486;28;19914;-86
2021/07/12 09:44:12;;;;;;;;;;;29.60;97.30;;;;;;4997978;28;19910;-86
2021/07/12 09:46:38;;;;;;;;;;;29.80;97.80;;;;;;5015235;28;20332;-85
2021/07/12 09:49:10;;;;;;;;;;;29.70;96.10;;;;;;4997817;28;19913;-86
2021/07/12 09:51:37;;;;;;;;;;;29.90;98.00;;;;;;5015373;28;19953;-86
2021/07/12 09:54:15;;;;;;;;;;;30.30;96.90;;;;;;4997728;28;19917;-86
2021/07/12 09:56:41;;;;;;;;;;;30.60;95.40;;;;;;4994286;28;20292;-85
2021/07/12 09:59:06;;;;;;;;;;;30.60;94.90;;;;;;4997475;28;19909;-86
2021/07/12 10:01:32;;;;;;;;;;;30.50;96.80;;;;;;5014794;28;19910;-86
2021/07/12 10:03:58;;;;;;;;;;;30.60;95.30;;;;;;5015252;28;19909;-85
2021/07/12 10:06:24;;;;;;;;;;;30.60;95.50;;;;;;4997301;28;20425;-85
2021/07/12 10:08:51;;;;;;;;;;;29.80;93.50;;;;;;5014578;28;19957;-86
2021/07/12 10:11:17;;;;;;;;;;;29.60;94.50;;;;;;4997433;28;20008;-86
2021/07/12 10:13:43;;;;;;;;;;;29.40;93.90;;;;;;5014999;28;19976;-86
2021/07/12 10:16:08;;;;;;;;;;;29.10;95.60;;;;;;4997298;28;20053;-86
2021/07/12 10:18:34;;;;;;;;;;;29.00;95.70;;;;;;4997358;28;19910;-87
2021/07/12 10:20:59;;;;;;;;;;;29.00;95.80;;;;;;5014972;28;19909;-88
2021/07/12 10:23:25;;;;;;;;;;;29.00;97.30;;;;;;4997460;28;19921;-87
2021/07/12 10:25:53;;;;;;;;;;;29.00;95.30;;;;;;5014837;28;19920;-87
2021/07/12 10:28:38;;;;;;;;;;;29.10;95.40;;;;;;4997085;28;19916;-87
2021/07/12 10:31:15;;;;;;;;;;;29.00;96.40;;;;;;4997179;28;19910;-87
2021/07/12 10:33:41;;;;;;;;;;;28.80;95.00;;;;;;5014533;28;19917;-86
2021/07/12 10:36:07;;;;;;;;;;;28.50;92.90;;;;;;4996993;28;19932;-88
2021/07/12 10:38:40;;;;;;;;;;;28.10;93.50;;;;;;5014191;28;19990;-87
2021/07/12 10:41:28;;;;;;;;;;;27.80;94.10;;;;;;4977339;28;20401;-86
2021/07/12 10:43:53;;;;;;;;;;;27.70;95.80;;;;;;4995498;28;20008;-86
2021/07/12 10:46:26;;;;;;;;;;;27.60;93.20;;;;;;4996133;28;20348;-87
2021/07/12 10:48:52;;;;;;;;;;;27.50;94.60;;;;;;5014308;28;20261;-86
2021/07/12 10:51:18;;;;;;;;;;;27.40;93.50;;;;;;4996751;28;20367;-88
2021/07/12 10:53:54;;;;;;;;;;;27.20;93.70;;;;;;4996838;28;19949;-89
2021/07/12 10:56:21;;;;;;;;;;;26.90;94.50;;;;;;4996522;28;19964;-88
2021/07/12 10:58:47;;;;;;;;;;;26.80;95.80;;;;;;4996647;28;19913;-88
2021/07/12 11:01:16;;;;;;;;;;;26.90;98.40;;;;;;4996706;28;20327;-87
2021/07/12 11:03:51;;;;;;;;;;;27.30;96.60;;;;;;4996459;28;19916;-87
2021/07/12 11:06:21;;;;;;;;;;;27.70;96.50;;;;;;5013645;28;19921;-86
2021/07/12 11:08:48;;;;;;;;;;;28.10;94.60;;;;;;4996449;28;20476;-86
2021/07/12 11:11:20;;;;;;;;;;;28.30;94.60;;;;;;4996798;28;19941;-86
2021/07/12 11:13:53;;;;;;;;;;;28.60;95.60;;;;;;5013832;28;19913;-87
2021/07/12 11:16:25;;;;;;;;;;;28.70;95.80;;;;;;4996328;28;20279;-87
2021/07/12 11:18:54;;;;;;;;;;;28.80;93.20;;;;;;4994135;28;19956;-86
2021/07/12 11:21:33;;;;;;;;;;;28.90;96.10;;;;;;4996298;28;19921;-86
2021/07/12 11:24:11;;;;;;;;;;;29.00;94.70;;;;;;4996225;28;20000;-86
2021/07/12 11:26:38;;;;;;;;;;;29.10;92.60;;;;;;5013410;28;19913;-87
2021/07/12 11:29:12;;;;;;;;;;;29.10;93.10;;;;;;5013512;28;19914;-87
2021/07/12 11:31:38;;;;;;;;;;;29.10;94.70;;;;;;4996119;28;19979;-88
2021/07/12 11:34:05;;;;;;;;;;;29.00;92.50;;;;;;4996126;28;20364;-86
2021/07/12 11:36:30;;;;;;;;;;;28.90;93.70;;;;;;5013609;28;19917;-87
2021/07/12 11:38:56;;;;;;;;;;;29.10;96.00;;;;;;5013169;28;20296;-87
2021/07/12 11:41:24;;;;;;;;;;;29.30;92.90;;;;;;4995845;28;20005;-87
2021/07/12 11:44:09;;;;;;;;;;;29.40;92.30;;;;;;4996193;28;19909;-87
2021/07/12 11:46:35;;;;;;;;;;;29.40;93.70;;;;;;4995657;28;19913;-88
2021/07/12 11:49:20;;;;;;;;;;;29.30;93.50;;;;;;4995559;28;19913;-87
2021/07/12 11:51:50;;;;;;;;;;;29.50;93.40;;;;;;5013463;28;20061;-87
2021/07/12 11:54:26;;;;;;;;;;;29.60;92.00;;;;;;4994982;28;20674;-87
2021/07/12 11:56:55;;;;;;;;;;;29.80;95.10;;;;;;4993781;28;19910;-87
2021/07/12 11:59:35;;;;;;;;;;;30.00;91.60;;;;;;4995213;28;19910;-87
2021/07/12 12:02:05;;;;;;;;;;;29.90;93.50;;;;;;4994616;28;19916;-87
2021/07/12 12:04:50;;;;;;;;;;;30.20;96.00;;;;;;4995691;28;19909;-87
2021/07/12 12:07:19;;;;;;;;;;;30.60;90.90;;;;;;5013056;28;19914;-88
2021/07/12 12:10:07;;;;;;;;;;;31.00;90.90;;;;;;5013277;28;19909;-87
2021/07/12 12:12:44;;;;;;;;;;;31.20;91.10;;;;;;4982780;28;19917;-88
2021/07/12 12:15:26;;;;;;;;;;;31.50;91.00;;;;;;4995739;28;19910;-88
2021/07/12 12:18:05;;;;;;;;;;;31.50;86.80;;;;;;4995240;28;19909;-86
2021/07/12 12:20:31;;;;;;;;;;;31.30;87.20;;;;;;4995357;28;19917;-87
2021/07/12 12:23:01;;;;;;;;;;;30.90;89.30;;;;;;5013027;28;20268;-87
2021/07/12 12:25:28;;;;;;;;;;;30.80;90.40;;;;;;4995422;28;19992;-88
2021/07/12 12:27:53;;;;;;;;;;;30.80;89.10;;;;;;4995106;28;19917;-87
2021/07/12 12:30:19;;;;;;;;;;;30.60;88.90;;;;;;5013061;28;19909;-88
2021/07/12 12:32:51;;;;;;;;;;;30.80;92.00;;;;;;4995355;28;19968;-87
2021/07/12 12:35:17;;;;;;;;;;;30.80;90.50;;;;;;5012876;28;20024;-87
2021/07/12 12:37:42;;;;;;;;;;;30.90;89.60;;;;;;4994540;28;19961;-88
2021/07/12 12:40:09;;;;;;;;;;;31.00;91.10;;;;;;4995369;28;19996;-87
2021/07/12 12:42:34;;;;;;;;;;;31.20;90.00;;;;;;4995209;28;19913;-87
2021/07/12 12:45:00;;;;;;;;;;;31.40;90.70;;;;;;4995386;28;20335;-87
2021/07/12 12:47:27;;;;;;;;;;;31.80;92.70;;;;;;4995151;28;20343;-87
2021/07/12 12:49:52;;;;;;;;;;;32.00;84.90;;;;;;4995221;28;20390;-88
2021/07/12 12:52:18;;;;;;;;;;;32.10;84.40;;;;;;4995397;28;19909;-87
2021/07/12 12:54:46;;;;;;;;;;;32.10;83.20;;;;;;4994719;28;19913;-87
2021/07/12 12:57:12;;;;;;;;;;;32.00;86.00;;;;;;4994909;28;20012;-87
2021/07/12 12:59:38;;;;;;;;;;;31.70;86.80;;;;;;4995042;28;20384;-86
2021/07/12 13:02:10;;;;;;;;;;;31.20;85.50;;;;;;4995202;28;20016;-86
2021/07/12 13:04:55;;;;;;;;;;;31.00;84.10;;;;;;4996537;28;20428;-86
2021/07/12 13:07:25;;;;;;;;;;;30.70;87.90;;;;;;5012928;28;19913;-87
2021/07/12 13:10:00;;;;;;;;;;;30.50;86.80;;;;;;4992358;28;19909;-87
2021/07/12 13:12:25;;;;;;;;;;;30.30;90.00;;;;;;5016298;28;19996;-87
2021/07/12 13:14:52;;;;;;;;;;;29.90;88.40;;;;;;4998440;28;19956;-87
2021/07/12 13:17:21;;;;;;;;;;;29.70;89.80;;;;;;5016056;28;19916;-87
2021/07/12 13:19:52;;;;;;;;;;;29.60;90.40;;;;;;4998431;28;20045;-87
2021/07/12 13:22:18;;;;;;;;;;;29.40;87.50;;;;;;4998693;28;19916;-87
2021/07/12 13:24:53;;;;;;;;;;;29.30;88.60;;;;;;4998424;28;20392;-86
2021/07/12 13:27:35;;;;;;;;;;;29.30;91.80;;;;;;4998142;28;20000;-88
2021/07/12 13:30:03;;;;;;;;;;;29.40;91.70;;;;;;4998358;28;20307;-87
2021/07/12 13:32:29;;;;;;;;;;;29.50;90.90;;;;;;5015718;28;19917;-88
2021/07/12 13:34:58;;;;;;;;;;;29.40;91.10;;;;;;4998295;28;20387;-87
2021/07/12 13:37:24;;;;;;;;;;;29.50;90.40;;;;;;4997351;28;19909;-87
2021/07/12 13:39:50;;;;;;;;;;;29.50;90.70;;;;;;4997915;28;19920;-87
2021/07/12 13:42:16;;;;;;;;;;;29.50;90.90;;;;;;4997968;28;19913;-87
2021/07/12 13:44:41;;;;;;;;;;;29.50;91.00;;;;;;5015435;28;19932;-86
2021/07/12 13:47:07;;;;;;;;;;;29.50;88.90;;;;;;4997441;28;19913;-87
2021/07/12 13:49:32;;;;;;;;;;;29.60;90.00;;;;;;4997776;28;19910;-87
2021/07/12 13:51:58;;;;;;;;;;;29.80;90.60;;;;;;4997905;28;20379;-87
2021/07/12 13:54:23;;;;;;;;;;;30.10;88.60;;;;;;4997222;28;19915;-87
2021/07/12 13:56:49;;;;;;;;;;;30.00;87.10;;;;;;5015190;28;19916;-87
2021/07/12 13:59:14;;;;;;;;;;;30.00;87.10;;;;;;5015186;28;19910;-86
2021/07/12 14:01:40;;;;;;;;;;;29.90;89.20;;;;;;5014499;28;19963;-87
2021/07/12 14:04:05;;;;;;;;;;;29.80;87.40;;;;;;5015161;28;19920;-87
2021/07/12 14:06:31;;;;;;;;;;;29.40;86.00;;;;;;5014832;28;20011;-86
2021/07/12 14:08:57;;;;;;;;;;;29.30;90.60;;;;;;4997240;28;19913;-87
2021/07/12 14:11:23;;;;;;;;;;;29.30;88.40;;;;;;5014992;28;19956;-87
2021/07/12 14:13:48;;;;;;;;;;;29.40;90.30;;;;;;4997314;28;19910;-86
2021/07/12 14:16:16;;;;;;;;;;;29.40;88.40;;;;;;5014149;28;19964;-86
2021/07/12 14:18:42;;;;;;;;;;;29.60;92.60;;;;;;4997136;28;20377;-87
2021/07/12 14:21:14;;;;;;;;;;;29.40;87.00;;;;;;4997128;28;19909;-86